Diane — WDF2440 — position and weather

sailwx.info

Track history (hours):
 
Tides and Currents Weather Stations Pressure Air Temp Water Temp Dewpoint Dewpoint Depression Visibility Wind Speed Wind Dir Waves Ship Positions

Diane

Owner: Enterprise Marine Services, LLC, San Antonio, TX. More information available from US FCC via Universal Licensing System and Coast Guard Vessel Documentation Center.

Last reported at 2017-Sep-24 13:37 UTC. Time now 2017-Sep-24 15:54 UTC.
Position N 29°44' W 095°13'.

Length 24 m; draft 2.9 m.

Type: . MMSI: 367131150.

Date/timePositionNaut miles runAvg speedWind from/ knotsBaromVisibWave heightAir tempDewpointWater temp
2017-Sep-24 13:37N 29°44' W 095°13'0 0.0
2017-Sep-24 13:30N 29°44' W 095°13'0 0.0
2017-Sep-24 13:00N 29°44' W 095°13'0 0.0
2017-Sep-24 12:30N 29°44' W 095°13'0 0.0
2017-Sep-24 12:00N 29°44' W 095°13'0 0.0
2017-Sep-24 11:30N 29°44' W 095°13'0 0.0
2017-Sep-24 10:59N 29°44' W 095°13'0 0.0
2017-Sep-24 10:30N 29°44' W 095°13'0 0.0
2017-Sep-24 10:00N 29°44' W 095°13'0 0.0
2017-Sep-24 09:30N 29°44' W 095°13'0 0.0
2017-Sep-24 09:00N 29°44' W 095°13'0 0.0
2017-Sep-24 08:30N 29°44' W 095°13'0 0.0
2017-Sep-24 07:58N 29°44' W 095°13'0 0.0
2017-Sep-24 07:30N 29°44' W 095°13'0 0.0
2017-Sep-24 06:59N 29°44' W 095°13'0 0.0
2017-Sep-24 06:29N 29°44' W 095°13'0 0.0
2017-Sep-24 04:48N 29°44' W 095°13'0 0.0
2017-Sep-24 04:23N 29°44' W 095°13'0 0.0
2017-Sep-24 04:00N 29°44' W 095°13'0 0.0
2017-Sep-24 03:29N 29°44' W 095°13'0 0.0
2017-Sep-24 03:00N 29°44' W 095°13'0 0.0
2017-Sep-24 02:30N 29°44' W 095°13'0 0.0
2017-Sep-24 02:00N 29°44' W 095°13'0 0.0
2017-Sep-24 01:30N 29°44' W 095°13'0 0.0
2017-Sep-24 01:00N 29°44' W 095°13'0 0.0
2017-Sep-24 00:29N 29°44' W 095°13'0 0.0
2017-Sep-23 23:59N 29°44' W 095°13'0 0.0
2017-Sep-23 23:30N 29°44' W 095°13'0 0.0
2017-Sep-23 22:58N 29°44' W 095°13'0 0.0
2017-Sep-23 22:30N 29°44' W 095°13'0 0.0
2017-Sep-23 22:00N 29°44' W 095°13'0 0.0
2017-Sep-23 21:30N 29°44' W 095°13'0 0.0
2017-Sep-23 21:00N 29°44' W 095°13'0 0.0
2017-Sep-23 20:30N 29°44' W 095°13'0 0.0
2017-Sep-23 19:59N 29°44' W 095°13'  
2017-Sep-21 00:28N 29°45' W 095°11'2 3.6
2017-Sep-20 23:53N 29°44' W 095°09'2 5.1
2017-Sep-20 23:26N 29°45' W 095°06'2 5.0
2017-Sep-20 22:58N 29°46' W 095°05'1 0.9
2017-Sep-20 21:58N 29°47' W 095°05'0 0.0
2017-Sep-20 20:36N 29°47' W 095°05'1 0.8
2017-Sep-20 18:49N 29°46' W 095°05'2 5.9
2017-Sep-20 18:26N 29°44' W 095°03'3 5.8
2017-Sep-20 18:00N 29°42' W 095°01'3 6.3
2017-Sep-20 17:30N 29°40' W 094°58'4 7.3
2017-Sep-20 17:00N 29°37' W 094°57'4 7.6
2017-Sep-20 16:30N 29°33' W 094°55'68 4.9
2017-Sep-20 02:35N 30°02' W 093°44'2 6.2
2017-Sep-20 02:19N 30°03' W 093°43'2 4.8
2017-Sep-20 01:58N 30°04' W 093°41'3 5.7
2017-Sep-20 01:28N 30°04' W 093°38'3 5.6
2017-Sep-20 01:00N 30°04' W 093°34'3 5.7
2017-Sep-20 00:30N 30°04' W 093°31'3 5.7
2017-Sep-20 00:00N 30°04' W 093°28'3 5.6
2017-Sep-19 23:30N 30°04' W 093°25'3 5.5
2017-Sep-19 23:00N 30°04' W 093°22'1 2.6
2017-Sep-19 22:31N 30°04' W 093°20'0 0.0
2017-Sep-19 22:00N 30°04' W 093°20'0 0.0
2017-Sep-19 21:30N 30°04' W 093°20'0 0.0
2017-Sep-19 21:00N 30°04' W 093°20'0 0.0
2017-Sep-19 20:30N 30°04' W 093°20'0 0.0
2017-Sep-19 20:00N 30°04' W 093°20'0 0.0
2017-Sep-19 19:30N 30°04' W 093°20'0 0.0
2017-Sep-19 19:00N 30°04' W 093°20'0 0.0
2017-Sep-19 18:30N 30°04' W 093°20'0 0.0
2017-Sep-19 18:00N 30°04' W 093°20'0 0.0
2017-Sep-19 17:30N 30°04' W 093°20'0 0.0
2017-Sep-19 17:00N 30°04' W 093°20'1 2.0
2017-Sep-19 16:31N 30°05' W 093°20'1 2.1
2017-Sep-19 16:01N 30°06' W 093°19'0 0.5
2017-Sep-19 15:30N 30°06' W 093°19'2 4.5
2017-Sep-19 15:01N 30°08' W 093°20'2 3.3
2017-Sep-19 14:30N 30°10' W 093°19'0 0.0
2017-Sep-19 14:00N 30°10' W 093°19'0 0.0
2017-Sep-19 13:31N 30°10' W 093°19'0 0.0
2017-Sep-19 13:01N 30°10' W 093°19'0 0.0
2017-Sep-19 12:31N 30°10' W 093°19'0 0.0
2017-Sep-19 12:01N 30°10' W 093°19'0 0.0
2017-Sep-19 11:30N 30°10' W 093°19'0 0.0
2017-Sep-19 11:00N 30°10' W 093°19'0 0.0
2017-Sep-19 10:31N 30°10' W 093°19'0 0.0
2017-Sep-19 10:00N 30°10' W 093°19'0 0.0
2017-Sep-19 09:30N 30°10' W 093°19'0 0.0
2017-Sep-19 09:00N 30°10' W 093°19'0 0.0
2017-Sep-19 08:31N 30°10' W 093°19'0 0.0
2017-Sep-19 08:00N 30°10' W 093°19'0 0.0
2017-Sep-19 07:30N 30°10' W 093°19'0 0.0
2017-Sep-19 07:00N 30°10' W 093°19'0 0.0
2017-Sep-19 06:30N 30°10' W 093°19'0 0.0
2017-Sep-19 06:01N 30°10' W 093°19'0 0.0
2017-Sep-19 05:30N 30°10' W 093°19'0 0.0
2017-Sep-19 05:01N 30°10' W 093°19'0 0.0
2017-Sep-19 04:31N 30°10' W 093°19'0 0.0
2017-Sep-19 04:01N 30°10' W 093°19'0 0.0
2017-Sep-19 03:31N 30°10' W 093°19'0 0.0
2017-Sep-19 03:00N 30°10' W 093°19'0 0.0
2017-Sep-19 02:30N 30°10' W 093°19'0 0.0
2017-Sep-19 02:00N 30°10' W 093°19'0 0.0
2017-Sep-19 01:30N 30°10' W 093°19'0 0.0
2017-Sep-19 01:00N 30°10' W 093°19'0 0.0
2017-Sep-19 00:31N 30°10' W 093°19'0 0.0
2017-Sep-19 00:01N 30°10' W 093°19'0 0.0
2017-Sep-18 23:30N 30°10' W 093°19'0 0.1
2017-Sep-18 23:00N 30°10' W 093°19'2 3.5
2017-Sep-18 22:30N 30°08' W 093°20'2 4.8
2017-Sep-18 22:01N 30°05' W 093°20'1 2.1
2017-Sep-18 21:30N 30°05' W 093°20'0 0.1
2017-Sep-18 21:00N 30°05' W 093°20'0 0.0
2017-Sep-18 20:30N 30°05' W 093°20'0 0.0
2017-Sep-18 20:00N 30°05' W 093°20'0 0.0
2017-Sep-18 19:30N 30°05' W 093°20'0 0.0
2017-Sep-18 19:00N 30°05' W 093°20'0 0.0
2017-Sep-18 18:31N 30°05' W 093°20'0 0.0
2017-Sep-18 18:00N 30°05' W 093°20'0 0.0
2017-Sep-18 17:30N 30°05' W 093°20'0 0.0
2017-Sep-18 17:01N 30°05' W 093°20'0 0.0
2017-Sep-18 16:30N 30°05' W 093°20'0 0.0
2017-Sep-18 16:00N 30°05' W 093°20'0 0.0
2017-Sep-18 15:31N 30°05' W 093°20'0 0.0
2017-Sep-18 15:01N 30°05' W 093°20'0 0.0
2017-Sep-18 14:30N 30°05' W 093°20'0 0.0
2017-Sep-18 14:00N 30°05' W 093°20'0 0.0
2017-Sep-18 13:30N 30°05' W 093°20'0 0.0
2017-Sep-18 13:01N 30°05' W 093°20'0 0.0
2017-Sep-18 12:31N 30°05' W 093°20'0 0.0
2017-Sep-18 12:00N 30°05' W 093°20'0 0.0
2017-Sep-18 11:31N 30°05' W 093°20'0 0.0
2017-Sep-18 11:01N 30°05' W 093°20'0 0.0
2017-Sep-18 10:31N 30°05' W 093°20'0 0.0
2017-Sep-18 10:01N 30°05' W 093°20'0 0.0
2017-Sep-18 09:31N 30°05' W 093°20'0 0.0
2017-Sep-18 09:01N 30°05' W 093°20'0 0.0
2017-Sep-18 08:31N 30°05' W 093°20'0 0.0
2017-Sep-18 08:00N 30°05' W 093°20'0 0.0
2017-Sep-18 07:31N 30°05' W 093°20'0 0.0
2017-Sep-18 07:01N 30°05' W 093°20'0 0.0
2017-Sep-18 06:31N 30°05' W 093°20'0 0.0
2017-Sep-18 06:01N 30°05' W 093°20'0 0.0
2017-Sep-18 05:31N 30°05' W 093°20'0 0.0
2017-Sep-18 05:01N 30°05' W 093°20'0 0.0
2017-Sep-18 04:30N 30°05' W 093°20'0 0.0
2017-Sep-18 04:00N 30°05' W 093°20'0 0.0
2017-Sep-18 03:31N 30°05' W 093°20'0 0.0
2017-Sep-18 03:00N 30°05' W 093°20'0 0.0
2017-Sep-18 02:30N 30°05' W 093°20'0 0.0
2017-Sep-18 02:00N 30°05' W 093°20'0 0.0
2017-Sep-18 01:31N 30°05' W 093°20'0 0.0
2017-Sep-18 01:01N 30°05' W 093°20'0 0.0
2017-Sep-18 00:31N 30°05' W 093°20'0 0.0
2017-Sep-18 00:01N 30°05' W 093°20'0 0.0
2017-Sep-17 23:30N 30°05' W 093°20'0 0.0
2017-Sep-17 23:00N 30°05' W 093°20'0 0.0
2017-Sep-17 22:30N 30°05' W 093°20'0 0.0
2017-Sep-17 22:01N 30°05' W 093°20'0 0.0
2017-Sep-17 21:31N 30°05' W 093°20'0 0.0
2017-Sep-17 21:01N 30°05' W 093°20'0 0.0
2017-Sep-17 20:31N 30°05' W 093°20'0 0.0
2017-Sep-17 20:01N 30°05' W 093°20'0 0.0
2017-Sep-17 19:31N 30°05' W 093°20'0 0.0
2017-Sep-17 19:01N 30°05' W 093°20'0 0.0
2017-Sep-17 18:31N 30°05' W 093°20'0 0.0
2017-Sep-17 18:01N 30°05' W 093°20'0 0.0
2017-Sep-17 17:31N 30°05' W 093°20'0 0.0
2017-Sep-17 17:00N 30°05' W 093°20'0 0.5
2017-Sep-17 16:31N 30°05' W 093°20'0 0.5
2017-Sep-17 16:01N 30°05' W 093°20'0 0.8
2017-Sep-17 15:31N 30°05' W 093°20'0 0.8
2017-Sep-17 15:01N 30°05' W 093°20'0 0.0
2017-Sep-17 14:31N 30°05' W 093°20'0 0.0
2017-Sep-17 14:01N 30°05' W 093°20'0 0.0
2017-Sep-17 13:31N 30°05' W 093°20'0 0.0
2017-Sep-17 13:01N 30°05' W 093°20'0 0.0
2017-Sep-17 12:31N 30°05' W 093°20'0 0.0
2017-Sep-17 12:01N 30°05' W 093°20'0 0.0
2017-Sep-17 11:31N 30°05' W 093°20'0 0.0
2017-Sep-17 11:00N 30°05' W 093°20'0 0.0
2017-Sep-17 10:31N 30°05' W 093°20'0 0.0
2017-Sep-17 10:01N 30°05' W 093°20'0 0.0
2017-Sep-17 09:31N 30°05' W 093°20'0 0.0
2017-Sep-17 09:01N 30°05' W 093°20'0 0.0
2017-Sep-17 08:31N 30°05' W 093°20'0 0.0
2017-Sep-17 08:01N 30°05' W 093°20'0 0.0
2017-Sep-17 07:31N 30°05' W 093°20'0 0.0
2017-Sep-17 07:01N 30°05' W 093°20'0 0.0
2017-Sep-17 06:30N 30°05' W 093°20'0 0.0
2017-Sep-17 06:01N 30°05' W 093°20'0 0.0
2017-Sep-17 05:31N 30°05' W 093°20'0 0.0
2017-Sep-17 04:56N 30°05' W 093°20'0 0.0
2017-Sep-17 04:31N 30°05' W 093°20'0 0.0
2017-Sep-17 04:01N 30°05' W 093°20'0 0.2
2017-Sep-17 03:30N 30°05' W 093°20'1 2.3
2017-Sep-17 03:00N 30°06' W 093°19'1 1.5
2017-Sep-17 02:31N 30°06' W 093°19'0 0.2
2017-Sep-17 02:01N 30°06' W 093°19'1 1.0
2017-Sep-17 01:30N 30°06' W 093°18'2 3.0
2017-Sep-17 01:00N 30°05' W 093°17'1 2.8
2017-Sep-17 00:31N 30°04' W 093°16'2 3.3
2017-Sep-17 00:01N 30°02' W 093°15'2 4.2
2017-Sep-16 23:31N 30°01' W 093°14'2 4.2
2017-Sep-16 23:01N 29°59' W 093°12'2 4.2
2017-Sep-16 22:31N 29°57' W 093°11'2 3.6
2017-Sep-16 22:01N 29°56' W 093°09'43 2.7
2017-Sep-16 06:02N 29°51' W 092°20'1 3.7
2017-Sep-16 05:52N 29°50' W 092°20'2 3.6
2017-Sep-16 05:20N 29°50' W 092°18'1 3.8
2017-Sep-16 05:00N 29°49' W 092°17'2 4.2
2017-Sep-16 04:30N 29°48' W 092°14'2 3.8
2017-Sep-16 04:00N 29°47' W 092°12'1 1.3
2017-Sep-16 03:30N 29°47' W 092°12'2 3.0
2017-Sep-16 03:00N 29°47' W 092°10'2 3.7
2017-Sep-16 02:30N 29°47' W 092°08'2 4.2
2017-Sep-16 02:00N 29°48' W 092°06'67 3.6
2017-Sep-15 07:17N 29°32' W 090°50'1 5.1
2017-Sep-15 07:00N 29°32' W 090°49'2 4.9
2017-Sep-15 06:30N 29°32' W 090°46'2 4.0
2017-Sep-15 06:00N 29°34' W 090°45'2 3.0
2017-Sep-15 05:30N 29°35' W 090°43'2 3.3
2017-Sep-15 05:00N 29°36' W 090°43'1 2.2
2017-Sep-15 04:30N 29°37' W 090°41'2 3.2
2017-Sep-15 04:00N 29°36' W 090°40'2 4.0
2017-Sep-15 03:30N 29°35' W 090°38'2 3.7
2017-Sep-15 03:00N 29°35' W 090°36'2 3.3
2017-Sep-15 02:30N 29°34' W 090°34'2 3.9
2017-Sep-15 02:00N 29°34' W 090°32'  
Track history (hours):
 
Tides and Currents Weather Stations Pressure Air Temp Water Temp Dewpoint Dewpoint Depression Visibility Wind Speed Wind Dir Waves Ship Positions

Diane

Owner: Enterprise Marine Services, LLC, San Antonio, TX. More information available from US FCC via Universal Licensing System and Coast Guard Vessel Documentation Center.

Last reported at 2017-Sep-24 13:37 UTC. Time now 2017-Sep-24 15:54 UTC.
Position N 29°44' W 095°13'.

Length 24 m; draft 2.9 m.

Type: . MMSI: 367131150.

Date/timePositionNaut miles runAvg speedWind from/ knotsBaromVisibWave heightAir tempDewpointWater temp
2017-Sep-24 13:37N 29°44' W 095°13'0 0.0
2017-Sep-24 13:30N 29°44' W 095°13'0 0.0
2017-Sep-24 13:00N 29°44' W 095°13'0 0.0
2017-Sep-24 12:30N 29°44' W 095°13'0 0.0
2017-Sep-24 12:00N 29°44' W 095°13'0 0.0
2017-Sep-24 11:30N 29°44' W 095°13'0 0.0
2017-Sep-24 10:59N 29°44' W 095°13'0 0.0
2017-Sep-24 10:30N 29°44' W 095°13'0 0.0
2017-Sep-24 10:00N 29°44' W 095°13'0 0.0
2017-Sep-24 09:30N 29°44' W 095°13'0 0.0
2017-Sep-24 09:00N 29°44' W 095°13'0 0.0
2017-Sep-24 08:30N 29°44' W 095°13'0 0.0
2017-Sep-24 07:58N 29°44' W 095°13'0 0.0
2017-Sep-24 07:30N 29°44' W 095°13'0 0.0
2017-Sep-24 06:59N 29°44' W 095°13'0 0.0
2017-Sep-24 06:29N 29°44' W 095°13'0 0.0
2017-Sep-24 04:48N 29°44' W 095°13'0 0.0
2017-Sep-24 04:23N 29°44' W 095°13'0 0.0
2017-Sep-24 04:00N 29°44' W 095°13'0 0.0
2017-Sep-24 03:29N 29°44' W 095°13'0 0.0
2017-Sep-24 03:00N 29°44' W 095°13'0 0.0
2017-Sep-24 02:30N 29°44' W 095°13'0 0.0
2017-Sep-24 02:00N 29°44' W 095°13'0 0.0
2017-Sep-24 01:30N 29°44' W 095°13'0 0.0
2017-Sep-24 01:00N 29°44' W 095°13'0 0.0
2017-Sep-24 00:29N 29°44' W 095°13'0 0.0
2017-Sep-23 23:59N 29°44' W 095°13'0 0.0
2017-Sep-23 23:30N 29°44' W 095°13'0 0.0
2017-Sep-23 22:58N 29°44' W 095°13'0 0.0
2017-Sep-23 22:30N 29°44' W 095°13'0 0.0
2017-Sep-23 22:00N 29°44' W 095°13'0 0.0
2017-Sep-23 21:30N 29°44' W 095°13'0 0.0
2017-Sep-23 21:00N 29°44' W 095°13'0 0.0
2017-Sep-23 20:30N 29°44' W 095°13'0 0.0
2017-Sep-23 19:59N 29°44' W 095°13'  
2017-Sep-21 00:28N 29°45' W 095°11'2 3.6
2017-Sep-20 23:53N 29°44' W 095°09'2 5.1
2017-Sep-20 23:26N 29°45' W 095°06'2 5.0
2017-Sep-20 22:58N 29°46' W 095°05'1 0.9
2017-Sep-20 21:58N 29°47' W 095°05'0 0.0
2017-Sep-20 20:36N 29°47' W 095°05'1 0.8
2017-Sep-20 18:49N 29°46' W 095°05'2 5.9
2017-Sep-20 18:26N 29°44' W 095°03'3 5.8
2017-Sep-20 18:00N 29°42' W 095°01'3 6.3
2017-Sep-20 17:30N 29°40' W 094°58'4 7.3
2017-Sep-20 17:00N 29°37' W 094°57'4 7.6
2017-Sep-20 16:30N 29°33' W 094°55'68 4.9
2017-Sep-20 02:35N 30°02' W 093°44'2 6.2
2017-Sep-20 02:19N 30°03' W 093°43'2 4.8
2017-Sep-20 01:58N 30°04' W 093°41'3 5.7
2017-Sep-20 01:28N 30°04' W 093°38'3 5.6
2017-Sep-20 01:00N 30°04' W 093°34'3 5.7
2017-Sep-20 00:30N 30°04' W 093°31'3 5.7
2017-Sep-20 00:00N 30°04' W 093°28'3 5.6
2017-Sep-19 23:30N 30°04' W 093°25'3 5.5
2017-Sep-19 23:00N 30°04' W 093°22'1 2.6
2017-Sep-19 22:31N 30°04' W 093°20'0 0.0
2017-Sep-19 22:00N 30°04' W 093°20'0 0.0
2017-Sep-19 21:30N 30°04' W 093°20'0 0.0
2017-Sep-19 21:00N 30°04' W 093°20'0 0.0
2017-Sep-19 20:30N 30°04' W 093°20'0 0.0
2017-Sep-19 20:00N 30°04' W 093°20'0 0.0
2017-Sep-19 19:30N 30°04' W 093°20'0 0.0
2017-Sep-19 19:00N 30°04' W 093°20'0 0.0
2017-Sep-19 18:30N 30°04' W 093°20'0 0.0
2017-Sep-19 18:00N 30°04' W 093°20'0 0.0
2017-Sep-19 17:30N 30°04' W 093°20'0 0.0
2017-Sep-19 17:00N 30°04' W 093°20'1 2.0
2017-Sep-19 16:31N 30°05' W 093°20'1 2.1
2017-Sep-19 16:01N 30°06' W 093°19'0 0.5
2017-Sep-19 15:30N 30°06' W 093°19'2 4.5
2017-Sep-19 15:01N 30°08' W 093°20'2 3.3
2017-Sep-19 14:30N 30°10' W 093°19'0 0.0
2017-Sep-19 14:00N 30°10' W 093°19'0 0.0
2017-Sep-19 13:31N 30°10' W 093°19'0 0.0
2017-Sep-19 13:01N 30°10' W 093°19'0 0.0
2017-Sep-19 12:31N 30°10' W 093°19'0 0.0
2017-Sep-19 12:01N 30°10' W 093°19'0 0.0
2017-Sep-19 11:30N 30°10' W 093°19'0 0.0
2017-Sep-19 11:00N 30°10' W 093°19'0 0.0
2017-Sep-19 10:31N 30°10' W 093°19'0 0.0
2017-Sep-19 10:00N 30°10' W 093°19'0 0.0
2017-Sep-19 09:30N 30°10' W 093°19'0 0.0
2017-Sep-19 09:00N 30°10' W 093°19'0 0.0
2017-Sep-19 08:31N 30°10' W 093°19'0 0.0
2017-Sep-19 08:00N 30°10' W 093°19'0 0.0
2017-Sep-19 07:30N 30°10' W 093°19'0 0.0
2017-Sep-19 07:00N 30°10' W 093°19'0 0.0
2017-Sep-19 06:30N 30°10' W 093°19'0 0.0
2017-Sep-19 06:01N 30°10' W 093°19'0 0.0
2017-Sep-19 05:30N 30°10' W 093°19'0 0.0
2017-Sep-19 05:01N 30°10' W 093°19'0 0.0
2017-Sep-19 04:31N 30°10' W 093°19'0 0.0
2017-Sep-19 04:01N 30°10' W 093°19'0 0.0
2017-Sep-19 03:31N 30°10' W 093°19'0 0.0
2017-Sep-19 03:00N 30°10' W 093°19'0 0.0
2017-Sep-19 02:30N 30°10' W 093°19'0 0.0
2017-Sep-19 02:00N 30°10' W 093°19'0 0.0
2017-Sep-19 01:30N 30°10' W 093°19'0 0.0
2017-Sep-19 01:00N 30°10' W 093°19'0 0.0
2017-Sep-19 00:31N 30°10' W 093°19'0 0.0
2017-Sep-19 00:01N 30°10' W 093°19'0 0.0
2017-Sep-18 23:30N 30°10' W 093°19'0 0.1
2017-Sep-18 23:00N 30°10' W 093°19'2 3.5
2017-Sep-18 22:30N 30°08' W 093°20'2 4.8
2017-Sep-18 22:01N 30°05' W 093°20'1 2.1
2017-Sep-18 21:30N 30°05' W 093°20'0 0.1
2017-Sep-18 21:00N 30°05' W 093°20'0 0.0
2017-Sep-18 20:30N 30°05' W 093°20'0 0.0
2017-Sep-18 20:00N 30°05' W 093°20'0 0.0
2017-Sep-18 19:30N 30°05' W 093°20'0 0.0
2017-Sep-18 19:00N 30°05' W 093°20'0 0.0
2017-Sep-18 18:31N 30°05' W 093°20'0 0.0
2017-Sep-18 18:00N 30°05' W 093°20'0 0.0
2017-Sep-18 17:30N 30°05' W 093°20'0 0.0
2017-Sep-18 17:01N 30°05' W 093°20'0 0.0
2017-Sep-18 16:30N 30°05' W 093°20'0 0.0
2017-Sep-18 16:00N 30°05' W 093°20'0 0.0
2017-Sep-18 15:31N 30°05' W 093°20'0 0.0
2017-Sep-18 15:01N 30°05' W 093°20'0 0.0
2017-Sep-18 14:30N 30°05' W 093°20'0 0.0
2017-Sep-18 14:00N 30°05' W 093°20'0 0.0
2017-Sep-18 13:30N 30°05' W 093°20'0 0.0
2017-Sep-18 13:01N 30°05' W 093°20'0 0.0
2017-Sep-18 12:31N 30°05' W 093°20'0 0.0
2017-Sep-18 12:00N 30°05' W 093°20'0 0.0
2017-Sep-18 11:31N 30°05' W 093°20'0 0.0
2017-Sep-18 11:01N 30°05' W 093°20'0 0.0
2017-Sep-18 10:31N 30°05' W 093°20'0 0.0
2017-Sep-18 10:01N 30°05' W 093°20'0 0.0
2017-Sep-18 09:31N 30°05' W 093°20'0 0.0
2017-Sep-18 09:01N 30°05' W 093°20'0 0.0
2017-Sep-18 08:31N 30°05' W 093°20'0 0.0
2017-Sep-18 08:00N 30°05' W 093°20'0 0.0
2017-Sep-18 07:31N 30°05' W 093°20'0 0.0
2017-Sep-18 07:01N 30°05' W 093°20'0 0.0
2017-Sep-18 06:31N 30°05' W 093°20'0 0.0
2017-Sep-18 06:01N 30°05' W 093°20'0 0.0
2017-Sep-18 05:31N 30°05' W 093°20'0 0.0
2017-Sep-18 05:01N 30°05' W 093°20'0 0.0
2017-Sep-18 04:30N 30°05' W 093°20'0 0.0
2017-Sep-18 04:00N 30°05' W 093°20'0 0.0
2017-Sep-18 03:31N 30°05' W 093°20'0 0.0
2017-Sep-18 03:00N 30°05' W 093°20'0 0.0
2017-Sep-18 02:30N 30°05' W 093°20'0 0.0
2017-Sep-18 02:00N 30°05' W 093°20'0 0.0
2017-Sep-18 01:31N 30°05' W 093°20'0 0.0
2017-Sep-18 01:01N 30°05' W 093°20'0 0.0
2017-Sep-18 00:31N 30°05' W 093°20'0 0.0
2017-Sep-18 00:01N 30°05' W 093°20'0 0.0
2017-Sep-17 23:30N 30°05' W 093°20'0 0.0
2017-Sep-17 23:00N 30°05' W 093°20'0 0.0
2017-Sep-17 22:30N 30°05' W 093°20'0 0.0
2017-Sep-17 22:01N 30°05' W 093°20'0 0.0
2017-Sep-17 21:31N 30°05' W 093°20'0 0.0
2017-Sep-17 21:01N 30°05' W 093°20'0 0.0
2017-Sep-17 20:31N 30°05' W 093°20'0 0.0
2017-Sep-17 20:01N 30°05' W 093°20'0 0.0
2017-Sep-17 19:31N 30°05' W 093°20'0 0.0
2017-Sep-17 19:01N 30°05' W 093°20'0 0.0
2017-Sep-17 18:31N 30°05' W 093°20'0 0.0
2017-Sep-17 18:01N 30°05' W 093°20'0 0.0
2017-Sep-17 17:31N 30°05' W 093°20'0 0.0
2017-Sep-17 17:00N 30°05' W 093°20'0 0.5
2017-Sep-17 16:31N 30°05' W 093°20'0 0.5
2017-Sep-17 16:01N 30°05' W 093°20'0 0.8
2017-Sep-17 15:31N 30°05' W 093°20'0 0.8
2017-Sep-17 15:01N 30°05' W 093°20'0 0.0
2017-Sep-17 14:31N 30°05' W 093°20'0 0.0
2017-Sep-17 14:01N 30°05' W 093°20'0 0.0
2017-Sep-17 13:31N 30°05' W 093°20'0 0.0
2017-Sep-17 13:01N 30°05' W 093°20'0 0.0
2017-Sep-17 12:31N 30°05' W 093°20'0 0.0
2017-Sep-17 12:01N 30°05' W 093°20'0 0.0
2017-Sep-17 11:31N 30°05' W 093°20'0 0.0
2017-Sep-17 11:00N 30°05' W 093°20'0 0.0
2017-Sep-17 10:31N 30°05' W 093°20'0 0.0
2017-Sep-17 10:01N 30°05' W 093°20'0 0.0
2017-Sep-17 09:31N 30°05' W 093°20'0 0.0
2017-Sep-17 09:01N 30°05' W 093°20'0 0.0
2017-Sep-17 08:31N 30°05' W 093°20'0 0.0
2017-Sep-17 08:01N 30°05' W 093°20'0 0.0
2017-Sep-17 07:31N 30°05' W 093°20'0 0.0
2017-Sep-17 07:01N 30°05' W 093°20'0 0.0
2017-Sep-17 06:30N 30°05' W 093°20'0 0.0
2017-Sep-17 06:01N 30°05' W 093°20'0 0.0
2017-Sep-17 05:31N 30°05' W 093°20'0 0.0
2017-Sep-17 04:56N 30°05' W 093°20'0 0.0
2017-Sep-17 04:31N 30°05' W 093°20'0 0.0
2017-Sep-17 04:01N 30°05' W 093°20'0 0.2
2017-Sep-17 03:30N 30°05' W 093°20'1 2.3
2017-Sep-17 03:00N 30°06' W 093°19'1 1.5
2017-Sep-17 02:31N 30°06' W 093°19'0 0.2
2017-Sep-17 02:01N 30°06' W 093°19'1 1.0
2017-Sep-17 01:30N 30°06' W 093°18'2 3.0
2017-Sep-17 01:00N 30°05' W 093°17'1 2.8
2017-Sep-17 00:31N 30°04' W 093°16'2 3.3
2017-Sep-17 00:01N 30°02' W 093°15'2 4.2
2017-Sep-16 23:31N 30°01' W 093°14'2 4.2
2017-Sep-16 23:01N 29°59' W 093°12'2 4.2
2017-Sep-16 22:31N 29°57' W 093°11'2 3.6
2017-Sep-16 22:01N 29°56' W 093°09'43 2.7
2017-Sep-16 06:02N 29°51' W 092°20'1 3.7
2017-Sep-16 05:52N 29°50' W 092°20'2 3.6
2017-Sep-16 05:20N 29°50' W 092°18'1 3.8
2017-Sep-16 05:00N 29°49' W 092°17'2 4.2
2017-Sep-16 04:30N 29°48' W 092°14'2 3.8
2017-Sep-16 04:00N 29°47' W 092°12'1 1.3
2017-Sep-16 03:30N 29°47' W 092°12'2 3.0
2017-Sep-16 03:00N 29°47' W 092°10'2 3.7
2017-Sep-16 02:30N 29°47' W 092°08'2 4.2
2017-Sep-16 02:00N 29°48' W 092°06'67 3.6
2017-Sep-15 07:17N 29°32' W 090°50'1 5.1
2017-Sep-15 07:00N 29°32' W 090°49'2 4.9
2017-Sep-15 06:30N 29°32' W 090°46'2 4.0
2017-Sep-15 06:00N 29°34' W 090°45'2 3.0
2017-Sep-15 05:30N 29°35' W 090°43'2 3.3
2017-Sep-15 05:00N 29°36' W 090°43'1 2.2
2017-Sep-15 04:30N 29°37' W 090°41'2 3.2
2017-Sep-15 04:00N 29°36' W 090°40'2 4.0
2017-Sep-15 03:30N 29°35' W 090°38'2 3.7
2017-Sep-15 03:00N 29°35' W 090°36'2 3.3
2017-Sep-15 02:30N 29°34' W 090°34'2 3.9
2017-Sep-15 02:00N 29°34' W 090°32'  

Dump ship's entire track history